createdAt,value
2022-09-12T00:00:48.799Z,99.90
2022-09-12T00:03:37.274Z,99.90
2022-09-12T00:06:26.388Z,99.90
2022-09-12T00:09:16.030Z,99.90
2022-09-12T00:12:03.965Z,99.90
2022-09-12T00:14:52.315Z,99.90
2022-09-12T00:17:40.478Z,99.90
2022-09-12T00:20:28.312Z,99.90
2022-09-12T00:23:16.399Z,99.90
2022-09-12T00:26:06.921Z,99.90
2022-09-12T00:28:54.729Z,99.90
2022-09-12T00:31:42.603Z,99.90
2022-09-12T00:34:30.518Z,99.90
2022-09-12T00:37:18.910Z,99.90
2022-09-12T00:40:07.595Z,99.90
2022-09-12T00:42:57.044Z,99.90
2022-09-12T00:45:45.066Z,99.90
2022-09-12T00:48:34.631Z,99.90
2022-09-12T00:51:22.913Z,99.90
2022-09-12T00:54:13.145Z,99.90
2022-09-12T00:57:05.015Z,99.90
2022-09-12T00:59:55.652Z,99.90
2022-09-12T01:02:43.958Z,99.90
2022-09-12T01:05:32.574Z,99.90
2022-09-12T01:08:20.597Z,99.90
2022-09-12T01:11:10.276Z,99.90
2022-09-12T01:13:58.370Z,99.90
2022-09-12T01:16:47.831Z,99.90
2022-09-12T01:19:47.299Z,99.90
2022-09-12T01:22:50.597Z,99.90
2022-09-12T01:25:43.699Z,99.90
2022-09-12T01:28:45.850Z,99.90
2022-09-12T01:31:38.433Z,99.90
2022-09-12T01:34:28.182Z,99.90
2022-09-12T01:37:18.056Z,99.90
2022-09-12T01:40:14.263Z,99.90
2022-09-12T01:43:06.492Z,99.90
2022-09-12T01:45:57.567Z,99.90
2022-09-12T01:48:49.118Z,99.90
2022-09-12T01:51:39.400Z,99.90
2022-09-12T01:54:30.576Z,99.90
2022-09-12T01:57:20.643Z,99.90
2022-09-12T02:00:11.521Z,99.90
2022-09-12T02:03:03.006Z,99.90
2022-09-12T02:05:54.416Z,99.90
2022-09-12T02:08:44.940Z,99.90
2022-09-12T02:11:35.147Z,99.90
2022-09-12T02:14:25.532Z,99.90
2022-09-12T02:17:14.670Z,99.90
2022-09-12T02:20:05.268Z,99.90
2022-09-12T02:22:55.986Z,99.90
2022-09-12T02:25:45.586Z,99.90
2022-09-12T02:28:35.327Z,99.90
2022-09-12T02:31:24.674Z,99.90
2022-09-12T02:34:19.362Z,99.90
2022-09-12T02:37:09.872Z,99.90
2022-09-12T02:39:59.896Z,99.90
2022-09-12T02:42:47.796Z,99.90
2022-09-12T02:45:36.351Z,99.90
2022-09-12T02:48:27.344Z,99.90
2022-09-12T02:51:16.200Z,99.90
2022-09-12T02:54:07.525Z,99.90
2022-09-12T02:56:57.005Z,99.90
2022-09-12T02:59:45.076Z,99.90
2022-09-12T03:02:36.890Z,99.90
2022-09-12T03:05:27.052Z,99.90
2022-09-12T03:08:45.257Z,99.90
2022-09-12T03:11:40.069Z,99.90
2022-09-12T03:14:34.706Z,99.90
2022-09-12T03:17:27.973Z,99.90
2022-09-12T03:20:16.943Z,99.90
2022-09-12T03:23:06.437Z,99.90
2022-09-12T03:25:57.157Z,99.90
2022-09-12T03:28:45.825Z,99.90
2022-09-12T03:31:35.157Z,99.90
2022-09-12T03:34:23.519Z,99.90
2022-09-12T03:37:11.278Z,99.90
2022-09-12T03:39:59.127Z,99.90
2022-09-12T03:42:46.918Z,99.90
2022-09-12T03:45:35.096Z,99.90
2022-09-12T03:48:24.274Z,99.90
2022-09-12T03:51:12.362Z,99.90
2022-09-12T03:54:00.171Z,99.90
2022-09-12T03:56:47.947Z,99.90
2022-09-12T03:59:35.891Z,99.90
2022-09-12T04:02:23.781Z,99.90
2022-09-12T04:05:13.012Z,99.90
2022-09-12T04:08:00.966Z,99.90
2022-09-12T04:10:48.784Z,99.90
2022-09-12T04:13:36.862Z,99.90
2022-09-12T04:16:24.655Z,99.90
2022-09-12T04:19:12.742Z,99.90
2022-09-12T04:22:01.860Z,99.90
2022-09-12T04:24:49.655Z,99.90
2022-09-12T04:27:37.606Z,99.90
2022-09-12T04:30:25.513Z,99.90
2022-09-12T04:33:13.774Z,99.90
2022-09-12T04:36:05.994Z,99.90
2022-09-12T04:38:55.475Z,99.90
2022-09-12T04:41:43.409Z,99.90
2022-09-12T04:44:32.101Z,99.90
2022-09-12T04:47:19.910Z,99.90
2022-09-12T04:50:08.377Z,99.90
2022-09-12T04:52:56.198Z,99.90
2022-09-12T04:55:45.361Z,99.90
2022-09-12T04:58:33.814Z,99.90
2022-09-12T05:01:23.088Z,99.90
2022-09-12T05:04:12.069Z,99.90
2022-09-12T05:06:59.969Z,99.90
2022-09-12T05:09:47.778Z,99.90
2022-09-12T05:12:36.918Z,99.90
2022-09-12T05:15:25.169Z,99.90
2022-09-12T05:18:12.944Z,99.90
2022-09-12T05:21:01.254Z,99.90
2022-09-12T05:23:52.121Z,99.90
2022-09-12T05:26:39.886Z,99.90
2022-09-12T05:29:29.159Z,99.90
2022-09-12T05:32:16.975Z,99.90
2022-09-12T05:35:05.067Z,99.90
2022-09-12T05:37:52.857Z,99.90
2022-09-12T05:40:40.736Z,99.90
2022-09-12T05:43:28.640Z,99.90
2022-09-12T05:46:19.000Z,99.90
2022-09-12T05:49:07.396Z,99.90
2022-09-12T05:51:55.242Z,99.90
2022-09-12T05:54:43.068Z,99.90
2022-09-12T05:57:31.235Z,99.90
2022-09-12T06:00:20.684Z,99.90
2022-09-12T06:03:09.819Z,99.90
2022-09-12T06:05:57.690Z,99.90
2022-09-12T06:08:46.328Z,99.90
2022-09-12T06:11:35.254Z,99.90
2022-09-12T06:14:23.096Z,99.90
2022-09-12T06:17:10.939Z,99.90
2022-09-12T06:20:00.292Z,99.90
2022-09-12T06:22:48.316Z,99.90
2022-09-12T06:25:36.141Z,99.90
2022-09-12T06:28:24.799Z,99.90
2022-09-12T06:31:13.584Z,99.90
2022-09-12T06:34:02.273Z,99.90
2022-09-12T06:36:51.552Z,99.90
2022-09-12T06:39:39.378Z,99.90
2022-09-12T06:42:27.188Z,99.90
2022-09-12T06:45:20.067Z,99.90
2022-09-12T06:48:07.906Z,99.90
2022-09-12T06:50:59.749Z,99.90
2022-09-12T06:53:49.688Z,99.90
2022-09-12T06:56:38.091Z,99.90
2022-09-12T06:59:25.919Z,99.90
2022-09-12T07:02:13.749Z,99.90
2022-09-12T07:05:01.600Z,99.90
2022-09-12T07:07:49.488Z,99.90
2022-09-12T07:10:38.624Z,99.90
2022-09-12T07:13:26.604Z,99.90
2022-09-12T07:16:19.882Z,99.90
2022-09-12T07:19:09.250Z,99.90
2022-09-12T07:21:58.744Z,99.90
2022-09-12T07:24:46.879Z,99.90
2022-09-12T07:27:37.633Z,99.90
2022-09-12T07:30:25.514Z,99.90
2022-09-12T07:33:13.402Z,99.90
2022-09-12T07:36:02.371Z,99.90
2022-09-12T07:38:57.415Z,99.90
2022-09-12T07:41:45.571Z,99.90
2022-09-12T07:44:34.820Z,99.90
2022-09-12T07:47:22.625Z,99.90
2022-09-12T07:50:10.806Z,99.90
2022-09-12T07:52:58.590Z,99.90
2022-09-12T07:55:53.438Z,99.90
2022-09-12T07:58:42.052Z,99.90
2022-09-12T08:01:31.287Z,99.90
2022-09-12T08:04:19.145Z,99.90
2022-09-12T08:07:07.227Z,99.90
2022-09-12T08:09:55.161Z,99.90
2022-09-12T08:12:42.997Z,99.90
2022-09-12T08:15:31.196Z,99.90
2022-09-12T08:18:20.406Z,99.90
2022-09-12T08:21:09.074Z,99.90
2022-09-12T08:23:57.866Z,99.90
2022-09-12T08:26:46.019Z,99.90
2022-09-12T08:29:33.866Z,99.90
2022-09-12T08:32:21.673Z,99.90
2022-09-12T08:35:11.000Z,99.90
2022-09-12T08:37:59.195Z,99.90
2022-09-12T08:40:52.103Z,99.90
2022-09-12T08:43:52.081Z,99.90
2022-09-12T08:46:45.935Z,99.90
2022-09-12T08:49:34.767Z,99.90
2022-09-12T08:52:27.009Z,99.90
2022-09-12T08:55:24.431Z,99.90
2022-09-12T08:58:14.505Z,99.90
2022-09-12T09:01:07.225Z,99.90
2022-09-12T09:04:10.050Z,99.90
2022-09-12T09:07:05.002Z,99.90
2022-09-12T09:10:01.841Z,99.90
2022-09-12T09:12:53.391Z,99.90
2022-09-12T09:15:46.594Z,99.90
2022-09-12T09:18:35.439Z,99.90
2022-09-12T09:21:24.780Z,99.90
2022-09-12T09:24:13.983Z,99.90
2022-09-12T09:27:14.278Z,99.90
2022-09-12T09:30:15.415Z,99.90
2022-09-12T09:33:04.309Z,99.90
2022-09-12T09:35:56.610Z,99.90
2022-09-12T09:38:48.813Z,99.90
2022-09-12T09:41:43.695Z,99.90
2022-09-12T09:44:32.833Z,99.90
2022-09-12T09:47:20.939Z,99.90
2022-09-12T09:50:13.383Z,99.90
2022-09-12T09:53:02.485Z,99.90
2022-09-12T09:55:51.150Z,99.90
2022-09-12T09:58:48.944Z,99.90
2022-09-12T10:01:40.053Z,99.90
2022-09-12T10:04:29.737Z,99.90
2022-09-12T10:07:20.340Z,99.90
2022-09-12T10:10:18.762Z,99.90
2022-09-12T10:13:10.950Z,99.90
2022-09-12T10:15:59.904Z,99.90
2022-09-12T10:18:51.105Z,99.90
2022-09-12T10:21:41.483Z,99.90
2022-09-12T10:24:31.642Z,99.90
2022-09-12T10:27:21.291Z,99.90
2022-09-12T10:30:18.180Z,99.90
2022-09-12T10:33:08.283Z,99.90
2022-09-12T10:35:57.585Z,99.90
2022-09-12T10:38:50.107Z,99.90
2022-09-12T10:41:38.898Z,99.90
2022-09-12T10:44:28.016Z,99.90
2022-09-12T10:47:24.268Z,99.90
2022-09-12T10:50:22.791Z,99.90
2022-09-12T10:53:19.158Z,99.90
2022-09-12T10:56:08.995Z,99.90
2022-09-12T10:59:04.581Z,99.90
2022-09-12T11:01:56.953Z,99.90
2022-09-12T11:04:54.050Z,99.90
2022-09-12T11:07:44.238Z,99.90
2022-09-12T11:10:42.547Z,99.90
2022-09-12T11:13:47.920Z,99.90
2022-09-12T11:16:42.827Z,99.90
2022-09-12T11:19:55.756Z,99.90
2022-09-12T11:23:02.484Z,99.90
2022-09-12T11:25:55.558Z,99.90
2022-09-12T11:28:48.378Z,99.90
2022-09-12T11:31:44.687Z,99.90
2022-09-12T11:34:37.167Z,99.90
2022-09-12T11:37:34.387Z,99.90
2022-09-12T11:40:29.052Z,99.90
2022-09-12T11:43:24.157Z,99.90
2022-09-12T11:46:16.118Z,99.90
2022-09-12T11:49:07.612Z,99.90
2022-09-12T11:51:57.871Z,99.90
2022-09-12T11:54:52.822Z,99.90
2022-09-12T11:57:43.746Z,99.90
2022-09-12T12:00:35.178Z,99.90
2022-09-12T12:03:27.176Z,99.90
2022-09-12T12:06:18.947Z,99.90
2022-09-12T12:09:06.802Z,99.90
2022-09-12T12:11:57.586Z,99.90
2022-09-12T12:14:46.961Z,99.90
2022-09-12T12:17:36.143Z,99.90
2022-09-12T12:20:24.245Z,99.90
2022-09-12T12:23:23.186Z,99.90
2022-09-12T12:26:31.203Z,99.90
2022-09-12T12:29:40.366Z,99.90
2022-09-12T12:32:31.387Z,99.90
2022-09-12T12:35:40.463Z,99.90
2022-09-12T12:38:30.772Z,99.90
2022-09-12T12:41:37.681Z,99.90
2022-09-12T12:44:40.542Z,99.90
2022-09-12T12:47:29.503Z,99.90
2022-09-12T12:50:23.450Z,99.90
2022-09-12T12:53:19.081Z,99.90
2022-09-12T12:56:26.073Z,99.90
2022-09-12T12:59:16.959Z,99.90
2022-09-12T13:02:05.609Z,99.90
2022-09-12T13:04:53.792Z,99.90
2022-09-12T13:07:41.784Z,99.90
2022-09-12T13:10:30.625Z,99.90
2022-09-12T13:13:24.758Z,99.90
2022-09-12T13:16:13.095Z,99.90
2022-09-12T13:19:03.786Z,99.90
2022-09-12T13:21:56.193Z,99.90
2022-09-12T13:24:44.644Z,99.90
2022-09-12T13:27:32.451Z,99.90
2022-09-12T13:30:21.820Z,99.90
2022-09-12T13:33:11.484Z,99.90
2022-09-12T13:36:19.144Z,99.90
2022-09-12T13:39:14.138Z,99.90
2022-09-12T13:42:08.882Z,99.90
2022-09-12T13:45:02.939Z,99.90
2022-09-12T13:47:58.405Z,99.90
2022-09-12T13:50:49.858Z,99.90
2022-09-12T13:53:46.733Z,99.90
2022-09-12T13:56:34.629Z,99.90
2022-09-12T13:59:22.491Z,99.90
2022-09-12T14:02:28.783Z,99.90
2022-09-12T14:05:20.370Z,99.90
2022-09-12T14:08:09.240Z,99.90
2022-09-12T14:10:58.357Z,99.90
2022-09-12T14:13:46.239Z,99.90
2022-09-12T14:16:38.902Z,99.90
2022-09-12T14:19:27.191Z,99.90
2022-09-12T14:22:17.966Z,99.90
2022-09-12T14:25:10.231Z,99.90
2022-09-12T14:27:59.072Z,99.90
2022-09-12T14:30:58.673Z,99.90
2022-09-12T14:33:50.793Z,99.90
2022-09-12T14:36:42.560Z,99.90
2022-09-12T14:39:33.002Z,99.90
2022-09-12T14:42:22.596Z,99.90
2022-09-12T14:45:15.407Z,99.90
2022-09-12T14:48:04.309Z,99.90
2022-09-12T14:50:53.370Z,99.90
2022-09-12T14:53:48.738Z,99.90
2022-09-12T14:56:42.303Z,99.90
2022-09-12T14:59:31.892Z,99.90
2022-09-12T15:02:25.550Z,99.90
2022-09-12T15:05:17.954Z,98.90
2022-09-12T15:08:05.804Z,98.60
2022-09-12T15:10:53.712Z,98.80
2022-09-12T15:13:42.973Z,98.60
2022-09-12T15:16:30.819Z,99.90
2022-09-12T15:19:18.600Z,99.90
2022-09-12T15:22:06.441Z,99.70
2022-09-12T15:24:56.352Z,99.90
2022-09-12T15:27:44.117Z,99.60
2022-09-12T15:30:33.341Z,99.60
2022-09-12T15:33:22.842Z,98.60
2022-09-12T15:36:13.781Z,99.20
2022-09-12T15:39:01.674Z,99.20
2022-09-12T15:41:49.724Z,97.90
2022-09-12T15:44:37.810Z,98.00
2022-09-12T15:47:28.052Z,98.60
2022-09-12T15:50:16.011Z,98.80
2022-09-12T15:53:03.948Z,98.50
2022-09-12T15:55:51.811Z,97.60
2022-09-12T15:58:54.784Z,97.10
2022-09-12T16:01:45.422Z,96.90
2022-09-12T16:04:35.478Z,96.50
2022-09-12T16:07:23.573Z,96.80
2022-09-12T16:10:15.623Z,97.30
2022-09-12T16:13:04.375Z,97.10
2022-09-12T16:15:52.726Z,98.00
2022-09-12T16:18:40.583Z,97.30
2022-09-12T16:21:31.889Z,97.10
2022-09-12T16:24:19.773Z,96.60
2022-09-12T16:27:07.647Z,97.10
2022-09-12T16:29:55.566Z,97.40
2022-09-12T16:32:45.086Z,97.10
2022-09-12T16:35:33.146Z,97.00
2022-09-12T16:38:22.272Z,96.30
2022-09-12T16:41:10.240Z,96.10
2022-09-12T16:43:58.205Z,96.20
2022-09-12T16:46:46.568Z,96.00
2022-09-12T16:49:34.650Z,96.00
2022-09-12T16:52:22.892Z,96.30
2022-09-12T16:55:12.085Z,95.90
2022-09-12T16:57:59.878Z,95.70
2022-09-12T17:00:47.750Z,96.30
2022-09-12T17:03:36.371Z,96.10
2022-09-12T17:06:25.178Z,96.90
2022-09-12T17:09:18.321Z,96.80
2022-09-12T17:12:07.761Z,97.00
2022-09-12T17:14:57.588Z,97.20
2022-09-12T17:17:46.877Z,97.00
2022-09-12T17:20:36.445Z,96.20
2022-09-12T17:23:24.427Z,96.50
2022-09-12T17:26:12.765Z,96.50
2022-09-12T17:29:02.135Z,96.60
2022-09-12T17:31:50.176Z,97.00
2022-09-12T17:34:37.995Z,97.50
2022-09-12T17:37:25.847Z,97.00
2022-09-12T17:40:14.174Z,97.50
2022-09-12T17:43:03.099Z,97.40
2022-09-12T17:45:58.014Z,97.40
2022-09-12T17:48:46.263Z,98.10
2022-09-12T17:51:34.647Z,98.50
2022-09-12T17:54:22.586Z,98.50
2022-09-12T17:57:10.949Z,98.70
2022-09-12T17:59:58.846Z,98.80
2022-09-12T18:02:47.488Z,99.20
2022-09-12T18:05:35.460Z,99.70
2022-09-12T18:08:23.868Z,99.50
2022-09-12T18:11:11.667Z,99.50
2022-09-12T18:13:59.598Z,99.90
2022-09-12T18:16:47.437Z,99.80
2022-09-12T18:19:36.669Z,99.90
2022-09-12T18:22:24.527Z,99.90
2022-09-12T18:25:12.354Z,99.90
2022-09-12T18:28:00.112Z,99.90
2022-09-12T18:30:49.640Z,99.90
2022-09-12T18:33:37.923Z,99.90
2022-09-12T18:36:27.886Z,99.90
2022-09-12T18:39:16.032Z,99.90
2022-09-12T18:42:03.849Z,99.90
2022-09-12T18:44:51.932Z,99.90
2022-09-12T18:47:39.761Z,99.90
2022-09-12T18:50:27.657Z,99.90
2022-09-12T18:53:16.773Z,99.90
2022-09-12T18:56:06.236Z,99.90
2022-09-12T18:58:54.847Z,99.90
2022-09-12T19:01:43.053Z,99.60
2022-09-12T19:04:31.185Z,99.40
2022-09-12T19:07:19.139Z,99.80
2022-09-12T19:10:08.938Z,99.20
2022-09-12T19:12:56.923Z,99.00
2022-09-12T19:15:44.756Z,99.10
2022-09-12T19:18:33.927Z,98.90
2022-09-12T19:21:23.435Z,98.50
2022-09-12T19:24:11.619Z,99.00
2022-09-12T19:27:00.806Z,98.80
2022-09-12T19:29:48.631Z,98.80
2022-09-12T19:32:36.401Z,98.50
2022-09-12T19:35:24.191Z,98.70
2022-09-12T19:38:12.546Z,99.00
2022-09-12T19:41:01.060Z,98.70
2022-09-12T19:43:50.795Z,98.50
2022-09-12T19:46:38.823Z,98.60
2022-09-12T19:49:26.790Z,98.30
2022-09-12T19:52:17.428Z,99.20
2022-09-12T19:55:05.640Z,99.70
2022-09-12T19:57:53.596Z,99.80
2022-09-12T20:00:42.752Z,99.50
2022-09-12T20:03:30.609Z,99.80
2022-09-12T20:06:18.650Z,99.90
2022-09-12T20:09:06.609Z,99.90
2022-09-12T20:11:54.444Z,99.90
2022-09-12T20:14:42.240Z,99.90
2022-09-12T20:17:31.649Z,99.90
2022-09-12T20:20:19.515Z,99.90
2022-09-12T20:23:07.575Z,99.90
2022-09-12T20:25:55.392Z,99.90
2022-09-12T20:28:43.279Z,99.90
2022-09-12T20:31:31.959Z,99.90
2022-09-12T20:34:21.689Z,99.90
2022-09-12T20:37:09.703Z,99.90
2022-09-12T20:39:57.509Z,99.90
2022-09-12T20:42:45.356Z,99.90
2022-09-12T20:45:33.141Z,99.90
2022-09-12T20:48:20.934Z,99.90
2022-09-12T20:51:10.092Z,99.90
2022-09-12T20:53:58.403Z,99.90
2022-09-12T20:56:46.212Z,99.90
2022-09-12T20:59:35.224Z,99.90
2022-09-12T21:02:23.146Z,99.90
2022-09-12T21:05:11.012Z,99.90
2022-09-12T21:08:00.684Z,99.90
2022-09-12T21:10:48.601Z,99.90
2022-09-12T21:13:36.726Z,99.90
2022-09-12T21:16:24.632Z,99.90
2022-09-12T21:19:12.417Z,99.90
2022-09-12T21:22:00.223Z,99.90
2022-09-12T21:24:49.345Z,99.90
2022-09-12T21:27:37.175Z,99.90
2022-09-12T21:30:25.028Z,99.90
2022-09-12T21:33:12.778Z,99.90
2022-09-12T21:36:02.597Z,99.90
2022-09-12T21:38:50.368Z,99.90
2022-09-12T21:41:39.501Z,99.90
2022-09-12T21:44:27.291Z,99.90
2022-09-12T21:47:15.069Z,99.90
2022-09-12T21:50:02.839Z,99.90
2022-09-12T21:52:50.678Z,99.90
2022-09-12T21:55:38.510Z,99.90
2022-09-12T21:58:27.720Z,99.90
2022-09-12T22:01:15.754Z,99.90
2022-09-12T22:04:03.808Z,99.90
2022-09-12T22:06:51.765Z,99.90
2022-09-12T22:09:39.528Z,99.90
2022-09-12T22:12:27.498Z,99.90
2022-09-12T22:15:40.010Z,99.90
2022-09-12T22:18:24.532Z,99.90
2022-09-12T22:21:13.984Z,99.90
2022-09-12T22:24:19.255Z,99.90
2022-09-12T22:27:08.143Z,99.90
2022-09-12T22:29:55.915Z,99.90
2022-09-12T22:32:45.084Z,99.90
2022-09-12T22:35:32.902Z,99.90
2022-09-12T22:38:20.740Z,99.90
2022-09-12T22:41:09.745Z,99.90
2022-09-12T22:43:57.752Z,99.90
2022-09-12T22:46:45.611Z,99.90
2022-09-12T22:49:34.800Z,99.90
2022-09-12T22:52:22.602Z,99.90
2022-09-12T22:55:10.498Z,99.90
2022-09-12T22:57:58.424Z,99.90
2022-09-12T23:00:50.238Z,99.90
2022-09-12T23:03:38.346Z,99.90
2022-09-12T23:06:27.610Z,99.90
2022-09-12T23:09:15.372Z,99.90
2022-09-12T23:12:03.905Z,99.90
2022-09-12T23:14:51.681Z,99.90
2022-09-12T23:17:39.575Z,99.90
2022-09-12T23:20:27.757Z,99.90
2022-09-12T23:23:16.918Z,99.90
2022-09-12T23:26:05.639Z,99.90
2022-09-12T23:28:54.785Z,99.90
2022-09-12T23:31:42.706Z,99.90
2022-09-12T23:34:30.972Z,99.90
2022-09-12T23:37:18.995Z,99.90
2022-09-12T23:40:09.152Z,99.90
2022-09-12T23:42:57.028Z,99.90
2022-09-12T23:45:44.893Z,99.90
2022-09-12T23:48:33.234Z,99.90
2022-09-12T23:51:21.694Z,99.90
2022-09-12T23:54:09.682Z,99.90
2022-09-12T23:56:58.837Z,99.90
2022-09-12T23:59:46.636Z,99.90
